createdAt,value
2022-08-28T00:01:39.963Z,98967.94
2022-08-28T00:04:42.536Z,98956.50
2022-08-28T00:07:47.869Z,98961.34
2022-08-28T00:10:50.074Z,98969.59
2022-08-28T00:13:51.878Z,98962.50
2022-08-28T00:16:54.704Z,98951.13
2022-08-28T00:19:56.656Z,98965.66
2022-08-28T00:22:59.575Z,98963.31
2022-08-28T00:26:02.606Z,98958.59
2022-08-28T00:29:06.858Z,98962.94
2022-08-28T00:32:08.904Z,98968.41
2022-08-28T00:35:12.516Z,98967.94
2022-08-28T00:38:15.440Z,98970.72
2022-08-28T00:41:17.661Z,98977.69
2022-08-28T00:44:29.035Z,98972.16
2022-08-28T00:47:30.899Z,98965.91
2022-08-28T00:50:54.598Z,98966.31
2022-08-28T00:54:07.371Z,98969.44
2022-08-28T00:57:15.349Z,98949.06
2022-08-28T01:00:25.445Z,98959.25
2022-08-28T01:03:27.525Z,98954.91
2022-08-28T01:06:29.239Z,98952.03
2022-08-28T01:09:32.850Z,98965.31
2022-08-28T01:12:35.807Z,98958.66
2022-08-28T01:15:39.095Z,98970.78
2022-08-28T01:18:43.197Z,98972.25
2022-08-28T01:22:04.809Z,98973.84
2022-08-28T01:25:11.507Z,98973.00
2022-08-28T01:28:14.501Z,98966.66
2022-08-28T01:31:17.270Z,98963.91
2022-08-28T01:34:19.146Z,98972.19
2022-08-28T01:37:21.124Z,98959.16
2022-08-28T01:40:32.646Z,98972.00
2022-08-28T01:43:34.562Z,98967.78
2022-08-28T01:46:36.570Z,98961.75
2022-08-28T01:49:38.369Z,98976.63
2022-08-28T01:52:40.405Z,98975.03
2022-08-28T01:55:43.532Z,98972.63
2022-08-28T01:58:48.160Z,98974.16
2022-08-28T02:01:50.040Z,98980.38
2022-08-28T02:04:53.310Z,98979.25
2022-08-28T02:07:56.062Z,98970.59
2022-08-28T02:10:58.028Z,98963.97
2022-08-28T02:14:01.503Z,98971.94
2022-08-28T02:17:03.325Z,98960.56
2022-08-28T02:20:06.028Z,98957.72
2022-08-28T02:23:07.786Z,98968.31
2022-08-28T02:26:11.193Z,98969.50
2022-08-28T02:29:13.551Z,98960.72
2022-08-28T02:32:15.474Z,98967.81
2022-08-28T02:35:19.649Z,98959.09
2022-08-28T02:38:22.702Z,98962.22
2022-08-28T02:41:24.694Z,98965.69
2022-08-28T02:44:26.428Z,98960.97
2022-08-28T02:47:28.317Z,98961.09
2022-08-28T02:50:31.181Z,98970.03
2022-08-28T02:53:33.035Z,98950.75
2022-08-28T02:56:34.745Z,98955.38
2022-08-28T02:59:38.001Z,98969.94
2022-08-28T03:02:41.708Z,98965.19
2022-08-28T03:05:43.659Z,98947.06
2022-08-28T03:08:45.436Z,98955.66
2022-08-28T03:11:47.256Z,98967.03
2022-08-28T03:14:49.074Z,98950.91
2022-08-28T03:17:51.174Z,98955.66
2022-08-28T03:20:54.105Z,98964.19
2022-08-28T03:23:55.842Z,98967.63
2022-08-28T03:26:58.408Z,98964.09
2022-08-28T03:30:00.256Z,98950.28
2022-08-28T03:33:02.120Z,98952.84
2022-08-28T03:36:04.886Z,98949.28
2022-08-28T03:39:06.974Z,98959.84
2022-08-28T03:42:09.127Z,98964.19
2022-08-28T03:45:14.714Z,98951.28
2022-08-28T03:48:16.814Z,98963.56
2022-08-28T03:51:29.559Z,98958.97
2022-08-28T03:54:33.516Z,98966.81
2022-08-28T03:57:36.915Z,98958.53
2022-08-28T04:00:40.415Z,98944.84
2022-08-28T04:03:42.170Z,98955.88
2022-08-28T04:06:43.938Z,98959.44
2022-08-28T04:09:46.384Z,98946.81
2022-08-28T04:12:48.262Z,98953.03
2022-08-28T04:16:02.673Z,98960.41
2022-08-28T04:19:08.340Z,98954.94
2022-08-28T04:22:10.057Z,98948.03
2022-08-28T04:25:11.821Z,98963.38
2022-08-28T04:28:13.772Z,98968.56
2022-08-28T04:31:17.044Z,98966.19
2022-08-28T04:34:19.630Z,98964.94
2022-08-28T04:37:21.765Z,98972.31
2022-08-28T04:40:28.115Z,98961.56
2022-08-28T04:43:29.906Z,98956.41
2022-08-28T04:46:31.835Z,98988.31
2022-08-28T04:49:33.735Z,98973.78
2022-08-28T04:52:35.487Z,98977.19
2022-08-28T04:55:54.903Z,98973.31
2022-08-28T04:58:57.402Z,98985.28
2022-08-28T05:01:59.195Z,98978.19
2022-08-28T05:05:00.963Z,98984.84
2022-08-28T05:08:02.880Z,98987.63
2022-08-28T05:11:32.655Z,98984.56
2022-08-28T05:14:36.745Z,98987.66
2022-08-28T05:17:38.557Z,98977.09
2022-08-28T05:20:44.718Z,98998.41
2022-08-28T05:23:47.558Z,99001.66
2022-08-28T05:26:49.409Z,98990.22
2022-08-28T05:29:51.190Z,98981.13
2022-08-28T05:32:53.663Z,98998.09
2022-08-28T05:35:55.468Z,98994.84
2022-08-28T05:38:58.535Z,98994.09
2022-08-28T05:42:00.320Z,99004.66
2022-08-28T05:45:02.212Z,99008.75
2022-08-28T05:48:04.168Z,99017.88
2022-08-28T05:51:11.603Z,99021.59
2022-08-28T05:54:14.997Z,99030.06
2022-08-28T05:57:16.674Z,99019.63
2022-08-28T06:00:18.494Z,99020.03
2022-08-28T06:03:20.718Z,99029.34
2022-08-28T06:06:24.821Z,99036.78
2022-08-28T06:09:30.068Z,99032.44
2022-08-28T06:12:32.097Z,99042.31
2022-08-28T06:15:34.146Z,99038.78
2022-08-28T06:18:35.941Z,99041.28
2022-08-28T06:21:39.045Z,99055.03
2022-08-28T06:24:40.874Z,99050.47
2022-08-28T06:27:48.053Z,99050.63
2022-08-28T06:31:17.875Z,99050.31
2022-08-28T06:34:14.141Z,99046.88
2022-08-28T06:37:15.900Z,99042.97
2022-08-28T06:40:17.664Z,99057.94
2022-08-28T06:43:22.701Z,99052.16
2022-08-28T06:46:25.586Z,99055.28
2022-08-28T06:49:27.479Z,99058.16
2022-08-28T06:52:30.348Z,99062.28
2022-08-28T06:55:32.168Z,99057.72
2022-08-28T06:58:43.428Z,99068.75
2022-08-28T07:01:55.565Z,99067.19
2022-08-28T07:04:57.523Z,99077.44
2022-08-28T07:07:59.367Z,99080.22
2022-08-28T07:11:28.789Z,99081.56
2022-08-28T07:14:30.586Z,99083.72
2022-08-28T07:17:32.783Z,99094.31
2022-08-28T07:20:34.608Z,99081.25
2022-08-28T07:23:38.114Z,99092.72
2022-08-28T07:26:42.457Z,99092.38
2022-08-28T07:29:44.368Z,99085.03
2022-08-28T07:32:49.753Z,99083.53
2022-08-28T07:35:51.543Z,99085.56
2022-08-28T07:38:55.705Z,99094.22
2022-08-28T07:41:57.378Z,99088.72
2022-08-28T07:44:59.442Z,99087.16
2022-08-28T07:48:05.809Z,99075.00
2022-08-28T07:51:10.463Z,99110.72
2022-08-28T07:54:17.589Z,99109.13
2022-08-28T07:57:21.260Z,99089.13
2022-08-28T08:00:24.655Z,99105.22
2022-08-28T08:03:26.749Z,99108.31
2022-08-28T08:06:33.130Z,99124.81
2022-08-28T08:09:39.013Z,99122.81
2022-08-28T08:12:42.796Z,99127.53
2022-08-28T08:15:44.807Z,99129.53
2022-08-28T08:18:48.787Z,99137.00
2022-08-28T08:21:53.236Z,99134.66
2022-08-28T08:24:57.484Z,99138.19
2022-08-28T08:27:59.688Z,99140.53
2022-08-28T08:31:09.477Z,99127.13
2022-08-28T08:34:11.564Z,99136.41
2022-08-28T08:37:14.437Z,99140.28
2022-08-28T08:40:19.610Z,99134.72
2022-08-28T08:43:23.259Z,99136.06
2022-08-28T08:46:34.135Z,99142.53
2022-08-28T08:49:41.403Z,99150.25
2022-08-28T08:53:03.514Z,99151.88
2022-08-28T08:56:06.419Z,99154.59
2022-08-28T08:59:16.851Z,99155.41
2022-08-28T09:02:31.289Z,99151.78
2022-08-28T09:05:48.513Z,99119.56
2022-08-28T09:08:59.155Z,99135.19
2022-08-28T09:12:05.755Z,99151.25
2022-08-28T09:15:18.480Z,99155.63
2022-08-28T09:18:34.681Z,99148.19
2022-08-28T09:21:42.031Z,99157.00
2022-08-28T09:24:45.373Z,99145.41
2022-08-28T09:27:47.953Z,99160.84
2022-08-28T09:31:06.810Z,99148.47
2022-08-28T09:34:25.303Z,99163.91
2022-08-28T09:37:29.991Z,99157.03
2022-08-28T09:40:51.751Z,99159.13
2022-08-28T09:43:53.935Z,99157.84
2022-08-28T09:46:55.758Z,99150.19
2022-08-28T09:50:16.353Z,99161.94
2022-08-28T09:53:22.102Z,99153.38
2022-08-28T09:56:41.956Z,99166.53
2022-08-28T09:59:43.793Z,99156.63
2022-08-28T10:03:10.571Z,99157.16
2022-08-28T10:06:38.771Z,99157.31
2022-08-28T10:10:17.335Z,99151.53
2022-08-28T10:13:30.961Z,99143.47
2022-08-28T10:16:47.210Z,99138.75
2022-08-28T10:20:13.237Z,99143.91
2022-08-28T10:23:30.690Z,99149.44
2022-08-28T10:26:59.688Z,99145.28
2022-08-28T10:30:13.337Z,99150.59
2022-08-28T10:33:52.350Z,99137.94
2022-08-28T10:37:24.206Z,99142.03
2022-08-28T10:40:34.877Z,99130.84
2022-08-28T10:43:48.104Z,99138.06
2022-08-28T10:46:55.664Z,99132.72
2022-08-28T10:50:05.230Z,99129.56
2022-08-28T10:53:14.590Z,99134.03
2022-08-28T10:56:25.609Z,99131.38
2022-08-28T10:59:31.994Z,99129.84
2022-08-28T11:02:37.464Z,99129.91
2022-08-28T11:06:11.858Z,99133.16
2022-08-28T11:09:29.948Z,99128.78
2022-08-28T11:12:41.793Z,99131.63
2022-08-28T11:15:52.643Z,99127.34
2022-08-28T11:19:16.007Z,99132.47
2022-08-28T11:22:23.450Z,99129.38
2022-08-28T11:25:35.676Z,99129.91
2022-08-28T11:28:47.511Z,99124.50
2022-08-28T11:32:29.534Z,99122.06
2022-08-28T11:35:42.068Z,99130.88
2022-08-28T11:38:44.031Z,99127.25
2022-08-28T11:42:10.918Z,99122.66
2022-08-28T11:45:40.018Z,99120.50
2022-08-28T11:48:53.951Z,99130.97
2022-08-28T11:52:20.599Z,99117.41
2022-08-28T11:55:34.141Z,99112.22
2022-08-28T11:59:10.641Z,99123.28
2022-08-28T12:02:40.749Z,99132.25
2022-08-28T12:05:45.894Z,99131.53
2022-08-28T12:08:47.828Z,99126.63
2022-08-28T12:11:51.623Z,99122.47
2022-08-28T12:14:56.346Z,99118.66
2022-08-28T12:18:03.014Z,99114.31
2022-08-28T12:21:08.712Z,99115.19
2022-08-28T12:24:35.147Z,99104.03
2022-08-28T12:27:39.125Z,99090.72
2022-08-28T12:31:06.941Z,99104.59
2022-08-28T12:34:31.762Z,99090.50
2022-08-28T12:37:52.636Z,99107.81
2022-08-28T12:40:58.043Z,99085.66
2022-08-28T12:44:00.635Z,99091.16
2022-08-28T12:47:02.445Z,99089.44
2022-08-28T12:50:22.680Z,99114.44
2022-08-28T12:53:24.976Z,99107.00
2022-08-28T12:56:34.059Z,99107.19
2022-08-28T12:59:42.183Z,99082.34
2022-08-28T13:02:46.499Z,99092.44
2022-08-28T13:06:00.256Z,99106.94
2022-08-28T13:09:14.833Z,99103.03
2022-08-28T13:12:22.789Z,99099.59
2022-08-28T13:16:02.263Z,99096.16
2022-08-28T13:19:04.192Z,99101.69
2022-08-28T13:22:27.939Z,99090.31
2022-08-28T13:25:38.770Z,99078.03
2022-08-28T13:28:42.872Z,99086.69
2022-08-28T13:31:45.280Z,99087.63
2022-08-28T13:35:25.558Z,99081.78
2022-08-28T13:38:28.319Z,99076.94
2022-08-28T13:41:33.068Z,99072.56
2022-08-28T13:44:54.536Z,99076.13
2022-08-28T13:47:56.337Z,99067.00
2022-08-28T13:51:14.269Z,99054.41
2022-08-28T13:54:25.224Z,99063.66
2022-08-28T13:57:29.655Z,99070.75
2022-08-28T14:00:36.818Z,99051.72
2022-08-28T14:03:42.143Z,99060.44
2022-08-28T14:06:45.391Z,99066.31
2022-08-28T14:09:47.130Z,99056.00
2022-08-28T14:12:50.271Z,99050.09
2022-08-28T14:15:52.447Z,99046.31
2022-08-28T14:18:54.750Z,99045.66
2022-08-28T14:21:57.622Z,99046.59
2022-08-28T14:24:59.373Z,99041.91
2022-08-28T14:28:01.327Z,99033.59
2022-08-28T14:31:08.942Z,99039.84
2022-08-28T14:34:17.637Z,99039.69
2022-08-28T14:37:20.111Z,99035.28
2022-08-28T14:40:22.358Z,99027.53
2022-08-28T14:43:24.272Z,99029.28
2022-08-28T14:46:33.814Z,99031.59
2022-08-28T14:49:36.026Z,99027.06
2022-08-28T14:52:39.002Z,99025.66
2022-08-28T14:55:50.605Z,99028.75
2022-08-28T14:58:52.430Z,99016.88
2022-08-28T15:02:02.202Z,99017.94
2022-08-28T15:05:04.311Z,99016.78
2022-08-28T15:08:14.014Z,99016.84
2022-08-28T15:11:18.964Z,99010.75
2022-08-28T15:14:20.703Z,99005.81
2022-08-28T15:17:23.660Z,98991.03
2022-08-28T15:20:45.364Z,99000.69
2022-08-28T15:23:50.573Z,98999.00
2022-08-28T15:26:52.594Z,99005.78
2022-08-28T15:29:56.346Z,99007.19
2022-08-28T15:33:28.979Z,99001.75
2022-08-28T15:36:30.907Z,99010.94
2022-08-28T15:39:56.217Z,98992.00
2022-08-28T15:42:58.796Z,98997.19
2022-08-28T15:46:21.067Z,99002.06
2022-08-28T15:49:25.125Z,98998.78
2022-08-28T15:52:27.118Z,99007.22
2022-08-28T15:55:30.404Z,99006.66
2022-08-28T15:58:32.117Z,99006.41
2022-08-28T16:01:35.868Z,99005.38
2022-08-28T16:04:41.297Z,98997.91
2022-08-28T16:07:48.372Z,98967.66
2022-08-28T16:10:51.649Z,99001.31
2022-08-28T16:13:54.193Z,98997.03
2022-08-28T16:16:56.262Z,98996.69
2022-08-28T16:19:58.061Z,98998.97
2022-08-28T16:22:59.880Z,99004.88
2022-08-28T16:26:05.541Z,98998.19
2022-08-28T16:29:07.818Z,98987.63
2022-08-28T16:32:09.656Z,98992.09
2022-08-28T16:35:15.056Z,98997.75
2022-08-28T16:38:17.683Z,98990.75
2022-08-28T16:41:24.963Z,98996.03
2022-08-28T16:44:30.188Z,98989.88
2022-08-28T16:47:33.622Z,98970.16
2022-08-28T16:50:35.638Z,98966.31
2022-08-28T16:53:39.033Z,98967.75
2022-08-28T16:56:40.816Z,98977.03
2022-08-28T16:59:43.440Z,98983.38
2022-08-28T17:02:45.594Z,98988.47
2022-08-28T17:05:47.462Z,98961.47
2022-08-28T17:08:52.291Z,98981.78
2022-08-28T17:11:59.024Z,98975.19
2022-08-28T17:15:01.563Z,98973.75
2022-08-28T17:18:03.276Z,98981.69
2022-08-28T17:21:24.084Z,98993.88
2022-08-28T17:24:25.985Z,98981.16
2022-08-28T17:27:28.267Z,99000.94
2022-08-28T17:30:30.370Z,98995.63
2022-08-28T17:33:32.777Z,98986.44
2022-08-28T17:36:36.787Z,99003.25
2022-08-28T17:39:38.661Z,99003.22
2022-08-28T17:42:40.652Z,98985.66
2022-08-28T17:45:42.595Z,98999.75
2022-08-28T17:48:47.943Z,99000.13
2022-08-28T17:51:57.790Z,99008.47
2022-08-28T17:55:00.201Z,99011.47
2022-08-28T17:58:02.734Z,99023.16
2022-08-28T18:01:05.076Z,99035.22
2022-08-28T18:04:06.849Z,99037.38
2022-08-28T18:07:09.095Z,99024.63
2022-08-28T18:10:11.798Z,99036.06
2022-08-28T18:13:15.029Z,99014.78
2022-08-28T18:16:17.232Z,99033.00
2022-08-28T18:19:19.800Z,99025.50
2022-08-28T18:22:21.486Z,99048.88
2022-08-28T18:25:41.614Z,99048.78
2022-08-28T18:28:45.128Z,99048.31
2022-08-28T18:31:46.845Z,99064.16
2022-08-28T18:34:49.008Z,99058.50
2022-08-28T18:37:51.278Z,99058.94
2022-08-28T18:40:53.574Z,99058.28
2022-08-28T18:43:56.298Z,99065.81
2022-08-28T18:47:00.883Z,99074.84
2022-08-28T18:50:05.042Z,99068.56
2022-08-28T18:53:06.937Z,99076.38
2022-08-28T18:56:08.809Z,99080.50
2022-08-28T18:59:12.692Z,99082.66
2022-08-28T19:02:15.975Z,99077.63
2022-08-28T19:05:17.903Z,99091.47
2022-08-28T19:08:19.614Z,99088.50
2022-08-28T19:11:21.458Z,99093.28
2022-08-28T19:14:23.700Z,99090.94
2022-08-28T19:17:26.733Z,99097.56
2022-08-28T19:20:30.008Z,99089.31
2022-08-28T19:23:32.813Z,99083.06
2022-08-28T19:26:34.969Z,99094.03
2022-08-28T19:29:38.368Z,99098.38
2022-08-28T19:32:41.561Z,99105.84
2022-08-28T19:35:43.943Z,99092.94
2022-08-28T19:38:45.766Z,99083.53
2022-08-28T19:41:47.467Z,99106.25
2022-08-28T19:44:59.598Z,99106.19
2022-08-28T19:48:01.839Z,99108.53
2022-08-28T19:51:14.355Z,99116.00
2022-08-28T19:54:19.786Z,99114.44
2022-08-28T19:57:21.400Z,99115.19
2022-08-28T20:00:29.519Z,99121.38
2022-08-28T20:03:31.484Z,99132.78
2022-08-28T20:06:35.061Z,99128.50
2022-08-28T20:09:37.034Z,99137.38
2022-08-28T20:12:39.943Z,99123.66
2022-08-28T20:15:50.073Z,99140.19
2022-08-28T20:18:52.116Z,99126.09
2022-08-28T20:21:54.649Z,99143.34
2022-08-28T20:24:56.341Z,99139.03
2022-08-28T20:28:01.555Z,99144.16
2022-08-28T20:31:08.746Z,99144.22
2022-08-28T20:34:12.268Z,99136.88
2022-08-28T20:37:14.210Z,99142.13
2022-08-28T20:40:19.916Z,99142.97
2022-08-28T20:43:21.501Z,99148.53
2022-08-28T20:46:23.584Z,99151.78
2022-08-28T20:49:25.407Z,99154.97
2022-08-28T20:52:27.176Z,99156.16
2022-08-28T20:55:28.915Z,99151.81
2022-08-28T20:58:30.680Z,99156.13
2022-08-28T21:01:33.838Z,99155.72
2022-08-28T21:04:36.910Z,99162.84
2022-08-28T21:07:40.416Z,99163.22
2022-08-28T21:10:43.316Z,99171.09
2022-08-28T21:13:45.217Z,99163.25
2022-08-28T21:16:47.029Z,99143.66
2022-08-28T21:19:52.019Z,99163.66
2022-08-28T21:22:54.432Z,99170.34
2022-08-28T21:25:56.128Z,99168.00
2022-08-28T21:28:57.887Z,99174.66
2022-08-28T21:32:00.013Z,99180.94
2022-08-28T21:35:04.357Z,99171.13
2022-08-28T21:38:06.064Z,99166.03
2022-08-28T21:41:12.354Z,99153.84
2022-08-28T21:44:14.281Z,99177.75
2022-08-28T21:47:16.079Z,99180.50
2022-08-28T21:50:18.340Z,99177.38
2022-08-28T21:53:20.069Z,99168.69
2022-08-28T21:56:24.840Z,99182.81
2022-08-28T21:59:26.680Z,99185.53
2022-08-28T22:02:34.407Z,99180.78
2022-08-28T22:05:36.250Z,99177.28
2022-08-28T22:08:39.301Z,99184.38
2022-08-28T22:11:41.381Z,99180.03
2022-08-28T22:14:43.673Z,99180.81
2022-08-28T22:17:45.405Z,99178.88
2022-08-28T22:21:06.295Z,99165.94
2022-08-28T22:24:09.014Z,99167.91
2022-08-28T22:27:13.472Z,99165.53
2022-08-28T22:30:15.262Z,99166.72
2022-08-28T22:33:16.917Z,99147.06
2022-08-28T22:36:20.006Z,99172.53
2022-08-28T22:39:21.755Z,99173.28
2022-08-28T22:42:23.611Z,99178.78
2022-08-28T22:45:25.730Z,99178.34
2022-08-28T22:48:27.472Z,99184.97
2022-08-28T22:51:34.458Z,99180.53
2022-08-28T22:54:36.324Z,99184.50
2022-08-28T22:57:38.138Z,99175.13
2022-08-28T23:00:41.178Z,99187.66
2022-08-28T23:03:43.413Z,99190.25
2022-08-28T23:06:45.381Z,99186.69
2022-08-28T23:09:47.504Z,99184.00
2022-08-28T23:12:49.943Z,99187.91
2022-08-28T23:15:51.765Z,99184.28
2022-08-28T23:19:08.658Z,99177.59
2022-08-28T23:22:11.280Z,99187.41
2022-08-28T23:25:15.994Z,99189.63
2022-08-28T23:28:18.918Z,99182.50
2022-08-28T23:31:20.994Z,99187.59
2022-08-28T23:34:23.572Z,99180.59
2022-08-28T23:37:26.026Z,99173.50
2022-08-28T23:40:28.137Z,99178.50
2022-08-28T23:43:32.479Z,99175.75
2022-08-28T23:46:34.383Z,99169.47
2022-08-28T23:49:41.668Z,99167.25
2022-08-28T23:52:45.269Z,99168.84
2022-08-28T23:55:48.626Z,99169.22
2022-08-28T23:58:53.221Z,99167.25
